Time;durP1;ratioP1;P1;durP2;ratioP2;P2;SDS_P1;SDS_P2;PMS_P1;PMS_P2;Temp;Humidity;BMP_temperature;BMP_pressure;BME280_temperature;BME280_humidity;BME280_pressure;Samples;Min_cycle;Max_cycle;Signal;HPM_P1;HPM_P2
2023/09/18 00:00:14;;;;;;;32.47;25.70;;;19.20;99.90;;;;;;6338099;22;20014;-87
2023/09/18 00:02:58;;;;;;;34.80;26.02;;;19.20;99.90;;;;;;6337833;22;20003;-87
2023/09/18 00:05:24;;;;;;;32.53;27.52;;;19.20;99.90;;;;;;6337544;22;20014;-87
2023/09/18 00:08:02;;;;;;;31.02;27.00;;;19.20;99.90;;;;;;6337487;22;20003;-88
2023/09/18 00:10:40;;;;;;;33.58;28.15;;;19.20;99.90;;;;;;6338408;22;20049;-87
2023/09/18 00:13:24;;;;;;;35.28;27.33;;;19.20;99.90;;;;;;6337460;22;20013;-88
2023/09/18 00:15:51;;;;;;;36.72;27.63;;;20.00;99.90;;;;;;6337294;22;20018;-88
2023/09/18 00:18:17;;;;;;;33.50;27.85;;;19.60;99.90;;;;;;6282694;22;20002;-88
2023/09/18 00:20:52;;;;;;;32.75;27.17;;;19.20;99.90;;;;;;6337400;22;20037;-88
2023/09/18 00:23:27;;;;;;;31.27;27.45;;;19.20;99.90;;;;;;6340683;22;19995;-89
2023/09/18 00:26:07;;;;;;;33.35;26.65;;;20.20;99.90;;;;;;6337433;22;20006;-88
2023/09/18 00:28:48;;;;;;;32.42;27.67;;;19.20;99.90;;;;;;6339297;22;20007;-88
2023/09/18 00:31:29;;;;;;;31.42;27.38;;;19.20;99.90;;;;;;6338188;22;20070;-88
2023/09/18 00:34:03;;;;;;;35.45;26.63;;;18.60;99.90;;;;;;6342242;22;20003;-87
2023/09/18 00:36:44;;;;;;;35.63;26.40;;;19.20;99.90;;;;;;6350994;22;20015;-88
2023/09/18 00:39:15;;;;;;;35.90;28.25;;;19.80;99.90;;;;;;6351000;22;20054;-88
2023/09/18 00:45:07;;;;;;;36.45;27.52;;;19.20;99.90;;;;;;6307458;22;20061;-89
2023/09/18 00:51:34;;;;;;;36.30;29.00;;;18.80;99.90;;;;;;6314227;22;20018;-89
2023/09/18 00:54:16;;;;;;;32.28;26.95;;;19.30;99.90;;;;;;6316795;22;20003;-89
2023/09/18 00:57:03;;;;;;;28.65;25.55;;;19.20;99.90;;;;;;6308816;22;20019;-90
2023/09/18 00:59:29;;;;;;;33.58;27.38;;;19.30;99.90;;;;;;6309130;22;20305;-90
2023/09/18 01:02:08;;;;;;;34.22;27.23;;;19.10;99.90;;;;;;6306768;22;20068;-89
2023/09/18 01:04:48;;;;;;;35.13;27.70;;;19.20;99.90;;;;;;6307516;22;20053;-89
2023/09/18 01:08:10;;;;;;;42.67;28.23;;;19.20;99.90;;;;;;6306727;22;20007;-90
2023/09/18 01:11:10;;;;;;;33.63;25.95;;;19.10;99.90;;;;;;6306426;22;20078;-90
2023/09/18 01:14:04;;;;;;;31.70;27.45;;;19.10;99.90;;;;;;6305572;22;20419;-89
2023/09/18 01:20:38;;;;;;;35.33;27.02;;;19.10;99.90;;;;;;6269678;22;20389;-89
2023/09/18 01:23:14;;;;;;;30.33;25.75;;;19.10;99.90;;;;;;6250038;22;19999;-89
2023/09/18 01:26:30;;;;;;;33.70;25.73;;;19.90;99.90;;;;;;6306970;22;20301;-90
2023/09/18 01:29:21;;;;;;;;;;;;;;;;;;;;;
2023/09/18 01:31:48;;;;;;;33.58;25.40;;;19.10;99.90;;;;;;6201941;22;20075;-89
2023/09/18 01:34:35;;;;;;;28.30;25.30;;;19.10;99.90;;;;;;6306766;22;20035;-90
2023/09/18 01:43:36;;;;;;;34.85;25.23;;;19.10;99.90;;;;;;6308380;22;20010;-88
2023/09/18 01:46:35;;;;;;;28.80;25.55;;;19.00;99.90;;;;;;6230243;22;20006;-88
2023/09/18 01:49:37;;;;;;;28.90;25.95;;;19.20;99.90;;;;;;6192150;22;20003;-89
2023/09/18 01:55:29;;;;;;;28.67;24.83;;;18.80;99.90;;;;;;6200089;23;20035;-89
2023/09/18 02:01:20;;;;;;;34.58;25.88;;;19.20;99.90;;;;;;6178905;23;20087;-89
2023/09/18 02:04:14;;;;;;;31.45;24.42;;;19.10;99.90;;;;;;6183097;23;20080;-89
2023/09/18 02:06:55;;;;;;;31.77;24.67;;;19.10;99.90;;;;;;6296297;22;20019;-90
2023/09/18 02:09:21;;;;;;;30.17;24.77;;;20.00;99.90;;;;;;6308074;22;20090;-89
2023/09/18 02:12:17;;;;;;;30.50;25.65;;;17.60;99.90;;;;;;6231883;22;20019;-88
2023/09/18 02:15:11;;;;;;;;;;;;;;;;;;;;;
2023/09/18 02:17:39;;;;;;;28.85;25.15;;;19.10;99.90;;;;;;6203514;22;20074;-89
2023/09/18 02:20:20;;;;;;;27.45;24.55;;;19.10;99.90;;;;;;6308258;22;20030;-88
2023/09/18 02:23:06;;;;;;;;;;;19.10;99.90;;;;;;6309330;22;20007;-87
2023/09/18 02:26:00;;;;;;;28.17;24.17;;;18.40;99.90;;;;;;6327026;22;19910;-87
2023/09/18 02:28:41;;;;;;;28.50;25.40;;;18.80;99.90;;;;;;6178698;22;19985;-87
2023/09/18 02:31:08;;;;;;;28.27;25.30;;;19.10;99.90;;;;;;6318704;22;20488;-88
2023/09/18 02:33:43;;;;;;;35.30;25.45;;;19.70;99.90;;;;;;6275681;22;20026;-88
2023/09/18 02:36:18;;;;;;;26.85;23.17;;;19.20;99.90;;;;;;6277138;22;20018;-88
2023/09/18 02:43:45;;;;;;;26.38;23.55;;;19.20;99.90;;;;;;6153060;23;20014;-89
2023/09/18 02:50:29;;;;;;;29.88;23.58;;;18.90;99.90;;;;;;6182120;23;20015;-89
2023/09/18 02:53:53;;;;;;;26.30;23.02;;;19.20;99.90;;;;;;6182728;23;20005;-88
2023/09/18 02:57:17;;;;;;;27.20;23.20;;;19.20;99.90;;;;;;6122444;23;20500;-88
2023/09/18 03:00:04;;;;;;;27.10;22.55;;;19.20;99.90;;;;;;6120314;23;20106;-88
2023/09/18 03:06:21;;;;;;;;;;;;;;;;;;;;;
2023/09/18 03:12:28;;;;;;;25.35;22.55;;;18.20;99.90;;;;;;6094729;23;20342;-88
2023/09/18 03:18:18;;;;;;;23.92;21.42;;;19.30;99.90;;;;;;6065692;23;20433;-88
2023/09/18 03:20:50;;;;;;;25.48;22.23;;;19.30;99.90;;;;;;6037240;23;20007;-88
2023/09/18 03:23:15;;;;;;;31.58;23.20;;;19.30;99.90;;;;;;6035952;23;20007;-88
2023/09/18 03:25:41;;;;;;;30.20;22.45;;;19.20;99.90;;;;;;6036721;23;20082;-88
2023/09/18 03:28:23;;;;;;;24.80;22.23;;;19.30;99.90;;;;;;6036770;23;20055;-89
2023/09/18 03:30:49;;;;;;;23.88;20.67;;;19.30;99.90;;;;;;6035205;23;20449;-87
2023/09/18 03:36:39;;;;;;;25.35;18.23;;;18.70;99.90;;;;;;6170145;22;20404;-88
2023/09/18 03:39:48;;;;;;;21.42;19.02;;;19.20;99.90;;;;;;6244932;23;19997;-89
2023/09/18 03:42:13;;;;;;;23.38;19.35;;;19.10;99.90;;;;;;6179671;23;20332;-88
2023/09/18 03:44:54;;;;;;;23.30;19.15;;;19.10;99.90;;;;;;6223015;23;20030;-88
2023/09/18 03:47:33;;;;;;;21.95;18.98;;;19.10;99.90;;;;;;6245475;23;20008;-90
2023/09/18 03:49:59;;;;;;;20.30;17.73;;;19.10;99.90;;;;;;6245006;23;20011;-90
2023/09/18 03:52:38;;;;;;;22.17;19.00;;;19.10;99.90;;;;;;6245419;23;20004;-89
2023/09/18 03:55:25;;;;;;;24.23;17.75;;;20.20;99.90;;;;;;6245831;23;20421;-89
2023/09/18 03:58:10;;;;;;;18.25;16.33;;;19.20;99.90;;;;;;6243952;23;20008;-90
2023/09/18 04:00:36;;;;;;;25.08;19.10;;;19.20;99.90;;;;;;6256505;23;20004;-89
2023/09/18 04:03:17;;;;;;;20.75;17.48;;;19.20;99.90;;;;;;6282724;22;20348;-89
2023/09/18 04:05:58;;;;;;;22.20;18.45;;;19.20;99.90;;;;;;6275489;22;20011;-88
2023/09/18 04:08:23;;;;;;;20.58;17.40;;;19.20;99.90;;;;;;6276375;22;20000;-89
2023/09/18 04:11:03;;;;;;;18.80;16.30;;;19.40;99.90;;;;;;6275106;22;20003;-88
2023/09/18 04:13:38;;;;;;;17.65;15.77;;;19.30;99.90;;;;;;6284686;22;20003;-90
2023/09/18 04:16:07;;;;;;;21.98;15.57;;;20.40;99.90;;;;;;6284560;22;20014;-89
2023/09/18 04:18:45;;;;;;;17.20;15.50;;;20.30;99.90;;;;;;6284722;22;20003;-89
2023/09/18 04:21:32;;;;;;;22.85;15.40;;;19.20;99.90;;;;;;6282732;22;20063;-89
2023/09/18 04:24:11;;;;;;;20.02;14.77;;;19.30;99.90;;;;;;6275768;22;19996;-89
2023/09/18 04:26:56;;;;;;;22.95;17.17;;;19.20;99.90;;;;;;6274558;22;20090;-89
2023/09/18 04:29:37;;;;;;;20.10;15.93;;;19.20;99.90;;;;;;6277939;22;20095;-89
2023/09/18 04:32:15;;;;;;;21.15;15.65;;;18.90;99.90;;;;;;6276824;22;20026;-90
2023/09/18 04:34:55;;;;;;;17.63;15.57;;;19.20;99.90;;;;;;6277338;22;20003;-90
2023/09/18 04:37:37;;;;;;;25.00;17.10;;;19.70;99.90;;;;;;6275833;22;20011;-89
2023/09/18 04:40:15;;;;;;;25.80;17.67;;;19.70;99.90;;;;;;6275779;22;20007;-90
2023/09/18 04:43:02;;;;;;;17.73;15.60;;;19.90;99.90;;;;;;6275930;22;20003;-89
2023/09/18 04:45:49;;;;;;;18.55;16.15;;;19.20;99.90;;;;;;6278544;22;20006;-90
2023/09/18 04:48:32;;;;;;;19.02;15.43;;;18.90;99.90;;;;;;6276529;22;20070;-90
2023/09/18 04:51:04;;;;;;;21.63;16.88;;;19.20;99.90;;;;;;6276125;22;20361;-89
2023/09/18 04:53:36;;;;;;;20.98;18.45;;;18.60;99.90;;;;;;6274817;22;20428;-90
2023/09/18 04:56:12;;;;;;;22.08;17.15;;;19.20;99.90;;;;;;6277108;22;20050;-90
2023/09/18 04:58:53;;;;;;;19.75;16.92;;;19.50;99.90;;;;;;6286041;22;19996;-90
2023/09/18 05:01:32;;;;;;;16.88;15.38;;;19.20;99.90;;;;;;6289398;22;20021;-89
2023/09/18 05:04:03;;;;;;;16.80;14.98;;;19.20;99.90;;;;;;6286274;22;20019;-88
2023/09/18 05:06:45;;;;;;;20.98;15.43;;;19.10;99.90;;;;;;6284975;22;20018;-89
2023/09/18 05:09:30;;;;;;;21.23;16.02;;;19.50;99.90;;;;;;6276162;22;19996;-91
2023/09/18 05:12:40;;;;;;;17.15;15.48;;;19.10;99.90;;;;;;6276205;22;20008;-92
2023/09/18 05:29:18;;;;;;;14.23;12.75;;;18.50;99.90;;;;;;6307679;22;20088;-88
2023/09/18 06:20:26;;;;;;;8.55;7.72;;;19.20;99.90;;;;;;6275312;22;20027;-87
2023/09/18 06:43:13;;;;;;;11.35;8.07;;;19.20;99.90;;;;;;6273056;22;20023;-85
2023/09/18 06:46:03;;;;;;;9.05;8.10;;;19.10;99.90;;;;;;6153081;23;20398;-86
2023/09/18 07:06:59;;;;;;;9.68;8.80;;;19.10;99.90;;;;;;6278444;22;20030;-85
2023/09/18 07:09:27;;;;;;;8.32;7.05;;;18.90;99.90;;;;;;6288324;22;20007;-87
2023/09/18 07:12:11;;;;;;;7.97;7.20;;;20.10;99.90;;;;;;6294407;22;20015;-86
2023/09/18 07:14:37;;;;;;;17.40;7.25;;;19.10;99.90;;;;;;6275171;22;20003;-87
2023/09/18 07:17:12;;;;;;;11.10;7.35;;;20.20;99.90;;;;;;6276003;22;20015;-88
2023/09/18 07:19:56;;;;;;;7.72;7.03;;;19.10;99.90;;;;;;6276028;22;20003;-89
2023/09/18 07:22:25;;;;;;;9.93;6.60;;;19.10;99.90;;;;;;6275714;22;20044;-89
2023/09/18 07:24:53;;;;;;;8.32;6.68;;;19.10;99.90;;;;;;6275491;22;20034;-89
2023/09/18 07:27:19;;;;;;;7.57;6.50;;;19.20;99.90;;;;;;6274582;22;20451;-88
2023/09/18 07:46:21;;;;;;;9.55;6.72;;;19.00;99.90;;;;;;6276656;22;20022;-94
2023/09/18 07:48:55;;;;;;;11.50;8.00;;;19.10;99.90;;;;;;6274433;22;20079;-92
2023/09/18 07:51:33;;;;;;;14.15;9.05;;;19.10;99.90;;;;;;6274030;22;20008;-89
2023/09/18 07:57:45;;;;;;;9.05;8.23;;;18.90;99.90;;;;;;6254242;22;20071;-93
2023/09/18 10:22:23;;;;;;;14.45;7.00;;;18.70;99.90;;;;;;6257032;22;20035;-89
2023/09/18 10:24:54;;;;;;;9.07;6.65;;;19.60;99.90;;;;;;6295242;22;20557;-89
2023/09/18 10:27:22;;;;;;;6.97;6.35;;;19.50;99.90;;;;;;6283055;22;19999;-91
2023/09/18 10:29:51;;;;;;;8.77;6.63;;;19.60;99.90;;;;;;6277500;22;20000;-93
2023/09/18 10:32:20;;;;;;;9.38;7.05;;;19.50;99.90;;;;;;6276878;22;20042;-89
2023/09/18 10:34:51;;;;;;;8.15;6.65;;;20.80;99.90;;;;;;6277345;22;20510;-91
2023/09/18 10:37:37;;;;;;;10.20;8.30;;;19.60;99.90;;;;;;6276482;22;20012;-90
2023/09/18 10:40:26;;;;;;;8.25;7.03;;;20.20;99.90;;;;;;6275941;22;20003;-92
2023/09/18 10:43:18;;;;;;;7.75;6.95;;;19.60;99.90;;;;;;6275528;22;20026;-89
2023/09/18 10:46:19;;;;;;;8.32;6.60;;;19.50;99.90;;;;;;6274570;22;20003;-91
2023/09/18 10:48:49;;;;;;;8.95;7.35;;;19.60;99.90;;;;;;6273981;22;20010;-88
2023/09/18 10:51:19;;;;;;;6.53;5.93;;;19.60;99.90;;;;;;6276250;22;20067;-88
2023/09/18 10:53:44;;;;;;;9.07;7.15;;;19.70;99.90;;;;;;6274880;22;20011;-88
2023/09/18 10:56:16;;;;;;;7.00;6.35;;;19.70;99.90;;;;;;6277687;22;20011;-89
2023/09/18 10:58:42;;;;;;;7.35;6.65;;;19.80;99.90;;;;;;6279169;22;20003;-93
2023/09/18 11:01:11;;;;;;;7.18;6.38;;;19.80;99.90;;;;;;6281047;22;20007;-93
2023/09/18 11:03:51;;;;;;;9.30;6.10;;;19.80;99.90;;;;;;6281795;22;20416;-92
2023/09/18 11:06:21;;;;;;;8.68;6.65;;;19.80;99.90;;;;;;6281000;22;20006;-90
2023/09/18 11:14:55;;;;;;;6.50;5.80;;;19.80;99.90;;;;;;6268168;22;20042;-90
2023/09/18 11:21:24;;;;;;;10.25;6.03;;;19.80;99.90;;;;;;6237177;22;20016;-91
2023/09/18 11:27:05;;;;;;;6.13;5.47;;;21.10;99.90;;;;;;6300325;22;20146;-93
2023/09/18 11:29:58;;;;;;;6.10;5.40;;;19.90;99.90;;;;;;6297370;22;20103;-92
2023/09/18 11:32:46;;;;;;;8.48;5.20;;;20.00;99.90;;;;;;6297899;22;19996;-92
2023/09/18 11:35:13;;;;;;;9.63;5.05;;;19.70;99.90;;;;;;6301887;22;19995;-93
2023/09/18 11:43:41;;;;;;;4.75;4.25;;;20.00;99.90;;;;;;6275013;22;20103;-87
2023/09/18 11:46:43;;;;;;;6.60;5.05;;;20.10;99.90;;;;;;6270958;22;20424;-86
2023/09/18 11:54:22;;;;;;;8.40;5.00;;;20.10;99.90;;;;;;6269017;22;20447;-90
2023/09/18 11:57:06;;;;;;;7.22;4.90;;;20.20;99.90;;;;;;6281565;22;20046;-90
2023/09/18 12:02:48;;;;;;;5.15;4.60;;;20.30;99.90;;;;;;6274912;22;20391;-92
2023/09/18 12:05:15;;;;;;;6.10;5.50;;;20.30;99.90;;;;;;6276089;22;20015;-91
2023/09/18 12:10:26;;;;;;;5.05;4.50;;;20.40;99.90;;;;;;6279431;22;20027;-90
2023/09/18 12:13:11;;;;;;;5.75;4.82;;;20.40;99.90;;;;;;6303271;22;19992;-90
2023/09/18 12:15:39;;;;;;;7.78;4.78;;;20.20;99.90;;;;;;6299121;22;20007;-90
2023/09/18 12:18:22;;;;;;;6.97;4.60;;;20.80;99.90;;;;;;6273583;22;20020;-90
2023/09/18 12:23:27;;;;;;;16.20;4.97;;;20.70;99.90;;;;;;6277295;22;20061;-91
2023/09/18 12:26:13;;;;;;;9.93;4.70;;;21.20;99.90;;;;;;6286829;22;20030;-91
2023/09/18 12:28:41;;;;;;;5.95;4.28;;;20.70;99.90;;;;;;6303869;22;20016;-91
2023/09/18 12:31:25;;;;;;;6.63;3.92;;;21.00;99.90;;;;;;6297755;22;20030;-90
2023/09/18 12:33:51;;;;;;;6.72;4.45;;;20.80;99.90;;;;;;6287170;22;20024;-91
2023/09/18 12:36:41;;;;;;;7.43;3.90;;;21.20;99.90;;;;;;6293860;22;20015;-91
2023/09/18 12:39:22;;;;;;;7.47;3.88;;;20.30;99.90;;;;;;6278668;22;20020;-92
2023/09/18 12:41:48;;;;;;;6.13;4.22;;;21.00;99.90;;;;;;6280380;22;20149;-90
2023/09/18 12:44:35;;;;;;;6.15;4.57;;;20.90;99.90;;;;;;6282942;22;19999;-92
2023/09/18 12:47:25;;;;;;;5.35;4.22;;;20.60;99.90;;;;;;6280346;22;20057;-92
2023/09/18 12:49:51;;;;;;;7.07;4.30;;;21.00;99.90;;;;;;6278855;22;20012;-92
2023/09/18 12:52:40;;;;;;;7.18;4.72;;;21.00;99.90;;;;;;6284342;22;20075;-90
2023/09/18 12:55:06;;;;;;;9.88;4.45;;;21.20;99.90;;;;;;6276932;22;20020;-92
2023/09/18 12:57:53;;;;;;;6.25;3.67;;;21.20;99.90;;;;;;6279199;22;20031;-92
2023/09/18 13:00:23;;;;;;;7.25;3.90;;;20.50;99.90;;;;;;6278688;22;19996;-93
2023/09/18 13:03:12;;;;;;;5.65;3.90;;;21.10;99.90;;;;;;6277915;22;20358;-92
2023/09/18 13:06:11;;;;;;;5.53;3.60;;;21.10;99.90;;;;;;6282395;22;20003;-93
2023/09/18 13:12:17;;;;;;;6.50;3.25;;;21.20;99.90;;;;;;6281032;22;20046;-92
2023/09/18 13:18:39;;;;;;;4.25;3.72;;;21.40;99.90;;;;;;6162688;22;20113;-93
2023/09/18 13:21:28;;;;;;;6.97;4.35;;;21.40;99.90;;;;;;6278083;22;20118;-90
2023/09/18 13:24:39;;;;;;;3.83;3.42;;;21.60;99.90;;;;;;6288017;22;19987;-91
2023/09/18 13:27:17;;;;;;;4.40;3.80;;;21.20;99.90;;;;;;6280629;22;20008;-86
2023/09/18 13:29:43;;;;;;;5.68;3.70;;;21.80;99.90;;;;;;6286575;22;20000;-87
2023/09/18 13:32:18;;;;;;;4.53;4.07;;;21.90;99.90;;;;;;6281690;22;20008;-86
2023/09/18 13:34:45;;;;;;;5.22;4.35;;;21.80;99.90;;;;;;6273312;22;20004;-86
2023/09/18 13:37:27;;;;;;;7.25;4.10;;;22.00;99.90;;;;;;6274312;22;20015;-86
2023/09/18 13:39:52;;;;;;;8.13;4.30;;;22.00;99.90;;;;;;6272054;22;20008;-87
2023/09/18 13:42:31;;;;;;;8.40;4.00;;;22.00;99.90;;;;;;6276652;22;20023;-82
2023/09/18 13:45:00;;;;;;;11.60;3.55;;;22.10;99.90;;;;;;6271857;22;20066;-83
2023/09/18 13:47:29;;;;;;;5.30;3.27;;;23.40;99.90;;;;;;6273970;22;20020;-92
2023/09/18 13:49:59;;;;;;;3.60;2.92;;;22.40;99.90;;;;;;6282633;22;20554;-93
2023/09/18 13:52:40;;;;;;;5.72;2.80;;;22.70;99.90;;;;;;6277321;22;20034;-93
2023/09/18 13:55:06;;;;;;;4.07;2.83;;;22.10;99.90;;;;;;6279970;22;20323;-93
2023/09/18 13:57:32;;;;;;;4.15;2.45;;;22.30;99.90;;;;;;6282917;22;20014;-92
2023/09/18 14:00:16;;;;;;;3.92;2.80;;;22.30;99.90;;;;;;6283029;22;20004;-93
2023/09/18 14:02:42;;;;;;;4.78;2.63;;;22.50;99.90;;;;;;6302196;22;20004;-93
2023/09/18 14:05:09;;;;;;;5.22;2.42;;;22.10;99.90;;;;;;6296872;22;20443;-93
2023/09/18 14:07:59;;;;;;;3.83;2.20;;;22.10;99.90;;;;;;6285151;22;20277;-93
2023/09/18 14:10:25;;;;;;;8.05;2.92;;;21.50;99.90;;;;;;6287442;22;20023;-92
2023/09/18 14:13:09;;;;;;;6.30;2.78;;;22.90;99.90;;;;;;6260235;22;20095;-94
2023/09/18 14:15:34;;;;;;;4.20;2.40;;;22.70;99.90;;;;;;6282144;22;20012;-93
2023/09/18 14:18:15;;;;;;;5.05;2.33;;;21.90;99.90;;;;;;6282009;22;20046;-92
2023/09/18 14:20:43;;;;;;;7.72;2.72;;;22.30;99.90;;;;;;6278176;22;20103;-93
2023/09/18 14:23:09;;;;;;;9.60;2.92;;;22.10;99.90;;;;;;6280370;22;20008;-93
2023/09/18 14:25:35;;;;;;;3.90;2.08;;;21.90;99.90;;;;;;6283288;22;20004;-92
2023/09/18 14:28:16;;;;;;;4.10;2.53;;;21.80;99.90;;;;;;6285108;22;19999;-93
2023/09/18 14:30:42;;;;;;;7.53;2.00;;;21.90;99.90;;;;;;6282688;22;20000;-93
2023/09/18 14:33:08;;;;;;;3.25;2.95;;;21.60;99.90;;;;;;6299085;22;20003;-93
2023/09/18 14:35:36;;;;;;;2.67;2.10;;;21.60;99.90;;;;;;6291697;22;20026;-94
2023/09/18 14:38:14;;;;;;;5.03;2.00;;;21.60;99.90;;;;;;6277333;22;19996;-91
2023/09/18 14:41:03;;;;;;;1.63;0.85;;;21.40;99.90;;;;;;6278629;22;20000;-92
2023/09/18 14:43:29;;;;;;;0.95;0.50;;;20.60;99.90;;;;;;6280093;22;20439;-92
2023/09/18 14:46:04;;;;;;;0.52;0.30;;;20.20;99.90;;;;;;6278700;22;20004;-90
2023/09/18 14:48:30;;;;;;;1.70;0.60;;;18.00;99.90;;;;;;6281631;22;20000;-90
2023/09/18 14:51:12;;;;;;;0.63;0.50;;;18.70;99.90;;;;;;6277147;22;20008;-90
2023/09/18 14:53:37;;;;;;;3.13;0.80;;;18.90;99.90;;;;;;6278256;22;20026;-90
2023/09/18 14:56:18;;;;;;;1.58;0.70;;;18.80;99.90;;;;;;6297475;22;19995;-92
2023/09/18 14:58:44;;;;;;;1.48;0.80;;;18.70;99.90;;;;;;6291955;22;20003;-93
2023/09/18 15:01:10;;;;;;;2.03;1.10;;;18.60;99.90;;;;;;6281322;22;20008;-92
2023/09/18 15:03:48;;;;;;;3.45;1.00;;;19.10;99.90;;;;;;6270833;22;20428;-92
2023/09/18 15:06:14;;;;;;;6.63;1.10;;;19.00;99.90;;;;;;6278496;22;20007;-91
2023/09/18 15:08:52;;;;;;;5.15;1.40;;;18.70;99.90;;;;;;6277885;22;20011;-92
2023/09/18 15:11:19;;;;;;;2.33;1.08;;;18.50;99.90;;;;;;6279829;22;20012;-91
2023/09/18 15:13:44;;;;;;;2.63;1.00;;;18.70;99.90;;;;;;6277139;22;20421;-91
2023/09/18 15:16:29;;;;;;;3.47;1.35;;;18.50;99.90;;;;;;6291408;22;20031;-88
2023/09/18 15:18:55;;;;;;;2.75;1.00;;;18.50;99.90;;;;;;6276595;22;20000;-87
2023/09/18 15:21:20;;;;;;;2.58;1.42;;;18.60;99.90;;;;;;6277791;22;20000;-86
2023/09/18 15:24:20;;;;;;;;;;;;;;;;;;;;;
2023/09/18 15:29:23;;;;;;;2.60;1.45;;;18.50;99.90;;;;;;6276873;22;20035;-92
2023/09/18 15:31:59;;;;;;;1.90;1.20;;;19.10;99.90;;;;;;6276335;22;20016;-94
2023/09/18 15:34:38;;;;;;;4.70;1.55;;;18.70;99.90;;;;;;6278369;22;20022;-93
2023/09/18 15:37:24;;;;;;;6.53;2.10;;;19.90;99.90;;;;;;6302234;22;20003;-93
2023/09/18 15:42:53;;;;;;;2.17;1.48;;;19.20;99.90;;;;;;6248679;23;20020;-92
2023/09/18 15:45:34;;;;;;;4.65;1.83;;;19.40;99.90;;;;;;6228503;22;20020;-93
2023/09/18 15:48:17;;;;;;;2.28;1.73;;;19.50;99.90;;;;;;6252056;22;20004;-93
2023/09/18 15:51:23;;;;;;;2.05;1.70;;;19.60;99.90;;;;;;6292071;22;20026;-92
2023/09/18 15:57:17;;;;;;;;;;;;;;;;;;;;;
2023/09/18 17:37:07;;;;;;;8.57;2.00;;;19.80;99.90;;;;;;6273096;22;20011;-90
2023/09/18 17:39:57;;;;;;;7.38;1.80;;;19.70;99.90;;;;;;6291964;22;19999;-91
2023/09/18 17:42:32;;;;;;;13.50;1.75;;;19.20;99.90;;;;;;6294315;22;20189;-90
2023/09/18 17:44:58;;;;;;;7.63;1.75;;;19.70;99.90;;;;;;6294812;22;20054;-90
2023/09/18 17:47:36;;;;;;;3.17;1.75;;;20.80;99.90;;;;;;6276788;22;20031;-91
2023/09/18 17:50:03;;;;;;;4.43;1.33;;;19.60;99.90;;;;;;6279137;22;20063;-91
2023/09/18 17:52:37;;;;;;;4.50;1.50;;;19.60;99.90;;;;;;6279621;22;20000;-91
2023/09/18 17:55:05;;;;;;;8.82;1.90;;;19.80;99.90;;;;;;6279307;22;20027;-89
2023/09/18 17:57:55;;;;;;;3.88;1.45;;;19.60;99.90;;;;;;6281298;22;20306;-91
2023/09/18 18:13:53;;;;;;;5.25;1.33;;;19.60;99.90;;;;;;6282442;22;20020;-94
2023/09/18 18:18:50;;;;;;;14.45;2.65;;;19.60;99.90;;;;;;6289400;22;20024;-93
2023/09/18 18:21:22;;;;;;;14.15;2.80;;;19.50;99.90;;;;;;6291631;22;19996;-94
2023/09/18 18:23:53;;;;;;;6.20;1.60;;;19.60;99.90;;;;;;6280099;22;20405;-92
2023/09/18 18:26:34;;;;;;;10.20;2.05;;;19.80;99.90;;;;;;6282336;22;20204;-93
2023/09/18 18:29:06;;;;;;;3.67;1.58;;;19.50;99.90;;;;;;6279786;22;20096;-91
2023/09/18 18:48:27;;;;;;;4.35;2.00;;;19.40;99.90;;;;;;6240350;22;20018;-93
2023/09/18 18:51:13;;;;;;;9.05;2.28;;;19.30;99.90;;;;;;6294669;22;20036;-93
2023/09/18 18:53:40;;;;;;;8.30;2.70;;;19.30;99.90;;;;;;6277367;22;20016;-89
2023/09/18 18:56:14;;;;;;;8.23;2.65;;;19.40;99.90;;;;;;6281191;22;20024;-90
2023/09/18 18:58:40;;;;;;;8.35;1.88;;;20.00;99.90;;;;;;6249725;23;19996;-91
2023/09/18 19:01:13;;;;;;;6.45;2.38;;;19.30;99.90;;;;;;6259813;22;20028;-88
2023/09/18 19:03:39;;;;;;;11.30;2.58;;;19.30;99.90;;;;;;6248230;23;20042;-92
2023/09/18 19:06:09;;;;;;;16.88;3.08;;;19.90;99.90;;;;;;6246468;23;20000;-90
2023/09/18 19:08:38;;;;;;;8.73;2.60;;;19.20;99.90;;;;;;6247636;23;20488;-90
2023/09/18 19:11:05;;;;;;;11.77;2.88;;;19.40;99.90;;;;;;6247081;23;20007;-91
2023/09/18 19:13:50;;;;;;;11.45;3.67;;;19.40;99.90;;;;;;6247248;23;20007;-90
2023/09/18 19:16:25;;;;;;;11.10;3.50;;;19.70;99.90;;;;;;6245710;23;20143;-90
2023/09/18 19:21:40;;;;;;;14.85;3.33;;;19.00;99.90;;;;;;6308175;22;20382;-90
2023/09/18 19:24:12;;;;;;;13.50;3.45;;;18.70;99.90;;;;;;6310521;22;20391;-89
2023/09/18 19:26:37;;;;;;;16.02;3.47;;;19.00;99.90;;;;;;6308341;22;20011;-89
2023/09/18 19:29:16;;;;;;;13.38;3.65;;;20.00;99.90;;;;;;6329379;22;19994;-90
2023/09/18 19:31:41;;;;;;;16.40;4.38;;;18.90;99.90;;;;;;6305094;22;20026;-90
2023/09/18 19:34:15;;;;;;;14.57;3.53;;;19.60;99.90;;;;;;6317535;22;20030;-89
2023/09/18 19:36:55;;;;;;;10.50;2.97;;;20.40;99.90;;;;;;6310124;22;20015;-91
2023/09/18 19:39:21;;;;;;;12.10;3.50;;;19.00;99.90;;;;;;6307655;22;20017;-88
2023/09/18 19:42:07;;;;;;;15.90;4.57;;;18.90;99.90;;;;;;6306721;22;20098;-89
2023/09/18 19:44:52;;;;;;;18.17;3.60;;;18.90;99.90;;;;;;6308148;22;20431;-90
2023/09/18 19:47:33;;;;;;;14.05;3.50;;;18.80;99.90;;;;;;6308541;22;19999;-91
2023/09/18 19:49:58;;;;;;;15.20;3.13;;;19.30;99.90;;;;;;6324163;22;20014;-91
2023/09/18 19:52:27;;;;;;;16.58;3.97;;;18.70;99.90;;;;;;6323047;22;20003;-90
2023/09/18 19:55:05;;;;;;;15.57;3.55;;;18.70;99.90;;;;;;6312734;22;20003;-91
2023/09/18 19:57:54;;;;;;;9.65;3.20;;;18.70;99.90;;;;;;6309023;22;20370;-91
2023/09/18 20:00:21;;;;;;;18.67;3.85;;;18.30;99.90;;;;;;6308564;22;20006;-92
2023/09/18 20:02:59;;;;;;;16.00;4.43;;;18.70;99.90;;;;;;6310121;22;20003;-92
2023/09/18 20:05:32;;;;;;;16.95;4.03;;;18.70;99.90;;;;;;6309112;22;20000;-91
2023/09/18 20:08:13;;;;;;;17.17;3.20;;;18.80;99.90;;;;;;6308408;22;20082;-91
2023/09/18 20:10:40;;;;;;;13.93;3.25;;;18.10;99.90;;;;;;6314738;22;20006;-91
2023/09/18 20:13:12;;;;;;;15.93;3.60;;;19.10;99.90;;;;;;6317320;22;20003;-90
2023/09/18 20:15:37;;;;;;;15.25;3.55;;;18.80;99.90;;;;;;6313194;22;19999;-91
2023/09/18 20:18:03;;;;;;;16.48;4.13;;;18.70;99.90;;;;;;6314753;22;20029;-92
2023/09/18 20:20:36;;;;;;;10.15;3.22;;;18.70;99.90;;;;;;6307942;22;19995;-92
2023/09/18 20:23:02;;;;;;;17.88;4.30;;;18.70;99.90;;;;;;6320341;22;19998;-91
2023/09/18 20:25:43;;;;;;;18.55;4.03;;;18.70;99.90;;;;;;6315515;22;20095;-89
2023/09/18 20:28:08;;;;;;;11.77;3.28;;;19.10;99.90;;;;;;6307406;22;20019;-91
2023/09/18 20:30:53;;;;;;;17.42;3.38;;;18.70;99.90;;;;;;6314781;22;19999;-91
2023/09/18 20:33:19;;;;;;;19.40;4.38;;;18.70;99.90;;;;;;6311314;22;20007;-91
2023/09/18 20:35:58;;;;;;;16.05;3.97;;;19.00;99.90;;;;;;6329015;22;20013;-91
2023/09/18 20:38:31;;;;;;;9.07;2.67;;;19.50;99.90;;;;;;6307849;22;20007;-90
2023/09/18 20:41:47;;;;;;;15.95;2.97;;;18.60;99.90;;;;;;6306500;22;20027;-91
2023/09/18 20:45:04;;;;;;;14.73;3.53;;;18.60;99.90;;;;;;6309221;22;20007;-89
2023/09/18 20:47:55;;;;;;;11.70;3.47;;;18.50;99.90;;;;;;6319989;22;20079;-91
2023/09/18 20:50:41;;;;;;;13.05;3.20;;;18.40;99.90;;;;;;6328183;22;20019;-90
2023/09/18 20:53:07;;;;;;;11.38;3.70;;;17.70;99.90;;;;;;6323888;22;20046;-89
2023/09/18 20:55:43;;;;;;;15.65;3.42;;;19.00;99.90;;;;;;6315194;22;20003;-91
2023/09/18 20:58:09;;;;;;;11.20;3.03;;;18.80;99.90;;;;;;6306442;22;20007;-91
2023/09/18 21:00:53;;;;;;;14.90;3.83;;;18.80;99.90;;;;;;6307365;22;20070;-91
2023/09/18 21:03:40;;;;;;;22.92;4.32;;;18.40;99.90;;;;;;6307374;22;20026;-92
2023/09/18 21:06:06;;;;;;;21.75;4.50;;;18.40;99.90;;;;;;6307958;22;20030;-90
2023/09/18 21:08:33;;;;;;;16.92;3.35;;;18.50;99.90;;;;;;6307082;22;20313;-92
2023/09/18 21:11:14;;;;;;;13.45;3.40;;;18.40;99.90;;;;;;6306504;22;20003;-90
2023/09/18 21:13:55;;;;;;;13.23;4.25;;;18.50;99.90;;;;;;6309053;22;20014;-90
2023/09/18 21:16:39;;;;;;;23.90;5.15;;;19.70;99.90;;;;;;6310487;22;20015;-90
2023/09/18 21:19:04;;;;;;;26.70;4.97;;;18.50;99.90;;;;;;6317989;22;20003;-90
2023/09/18 21:21:30;;;;;;;18.02;3.88;;;18.60;99.90;;;;;;6306851;22;20428;-90
2023/09/18 21:24:10;;;;;;;12.85;3.75;;;18.50;99.90;;;;;;6305765;22;20011;-91
2023/09/18 21:26:54;;;;;;;32.55;6.00;;;19.40;99.90;;;;;;6307673;22;20011;-92
2023/09/18 21:29:32;;;;;;;11.45;3.60;;;18.20;99.90;;;;;;6310196;22;20048;-93
2023/09/18 21:31:58;;;;;;;14.07;4.03;;;17.50;99.90;;;;;;6306990;22;20087;-92
2023/09/18 21:34:42;;;;;;;12.75;3.35;;;17.90;99.90;;;;;;6306730;22;20368;-92
2023/09/18 21:37:07;;;;;;;15.45;3.35;;;18.10;99.90;;;;;;6307306;22;20042;-91
2023/09/18 21:39:48;;;;;;;9.98;3.13;;;18.50;99.90;;;;;;6306105;22;19999;-91
2023/09/18 21:42:14;;;;;;;12.77;2.92;;;16.50;99.90;;;;;;6304755;22;20439;-91
2023/09/18 21:44:48;;;;;;;11.52;2.83;;;18.10;99.90;;;;;;6304304;22;20008;-90